Time;durP1;ratioP1;P1;durP2;ratioP2;P2;SDS_P1;SDS_P2;PMS_P1;PMS_P2;Temp;Humidity;BMP_temperature;BMP_pressure;BME280_temperature;BME280_humidity;BME280_pressure;Samples;Min_cycle;Max_cycle;Signal;HPM_P1;HPM_P2
2023/04/11 00:01:23;;;;;;;4.00;2.30;;;13.60;1.00;;;;;;5036032;28;20189;-74
2023/04/11 00:03:48;;;;;;;3.20;2.90;;;13.50;1.00;;;;;;5027822;28;20374;-74
2023/04/11 00:06:14;;;;;;;3.73;2.50;;;13.50;1.00;;;;;;5034916;28;20795;-74
2023/04/11 00:08:39;;;;;;;4.03;2.97;;;13.50;1.00;;;;;;5036029;28;20682;-74
2023/04/11 00:11:06;;;;;;;4.00;2.67;;;13.50;1.00;;;;;;5029815;28;20189;-74
2023/04/11 00:13:33;;;;;;;4.90;2.67;;;13.50;1.00;;;;;;5024952;28;20700;-74
2023/04/11 00:16:01;;;;;;;4.80;2.67;;;13.30;1.00;;;;;;5025543;28;20436;-74
2023/04/11 00:18:27;;;;;;;3.83;3.13;;;13.30;1.00;;;;;;5034982;28;20424;-74
2023/04/11 00:20:52;;;;;;;3.73;2.87;;;12.80;1.00;;;;;;5027338;28;20440;-74
2023/04/11 00:23:18;;;;;;;6.63;3.17;;;12.80;1.00;;;;;;5027021;28;20224;-74
2023/04/11 00:25:43;;;;;;;4.40;2.90;;;12.70;1.00;;;;;;5028674;28;20190;-74
2023/04/11 00:28:09;;;;;;;4.10;3.33;;;12.70;1.00;;;;;;5030626;28;20320;-74
2023/04/11 00:30:35;;;;;;;3.27;2.97;;;12.70;1.00;;;;;;5037288;28;20297;-74
2023/04/11 00:33:00;;;;;;;4.10;3.03;;;12.70;1.00;;;;;;5035158;28;20299;-74
2023/04/11 00:35:26;;;;;;;4.70;3.23;;;12.70;1.00;;;;;;5038211;28;20210;-74
2023/04/11 00:37:54;;;;;;;4.10;3.00;;;12.70;1.00;;;;;;5037642;28;20189;-74
2023/04/11 00:40:20;;;;;;;3.60;3.20;;;12.60;1.00;;;;;;5027071;28;20179;-74
2023/04/11 00:42:46;;;;;;;4.40;3.07;;;12.50;1.00;;;;;;5046249;28;20436;-74
2023/04/11 00:45:12;;;;;;;4.60;3.47;;;12.50;1.00;;;;;;5033025;28;20862;-74
2023/04/11 00:47:38;;;;;;;4.30;3.57;;;12.50;1.00;;;;;;5028473;28;20208;-74
2023/04/11 00:50:04;;;;;;;4.13;3.17;;;12.60;1.00;;;;;;5024944;28;20297;-74
2023/04/11 00:52:30;;;;;;;6.17;3.67;;;12.60;1.00;;;;;;5028915;28;20252;-74
2023/04/11 00:54:56;;;;;;;3.10;2.60;;;12.50;1.00;;;;;;5045817;28;20459;-74
2023/04/11 00:57:24;;;;;;;2.67;2.33;;;12.50;1.00;;;;;;5032619;28;20189;-74
2023/04/11 00:59:50;;;;;;;4.20;2.40;;;12.40;1.00;;;;;;5034520;28;20551;-75
2023/04/11 01:02:17;;;;;;;3.30;2.30;;;12.30;1.00;;;;;;5044801;28;20470;-74
2023/04/11 01:04:43;;;;;;;3.93;2.30;;;12.30;1.00;;;;;;5031337;28;20471;-74
2023/04/11 01:07:10;;;;;;;8.43;1.90;;;12.10;1.00;;;;;;5035235;28;20873;-74
2023/04/11 01:09:36;;;;;;;2.97;1.93;;;12.00;1.00;;;;;;5034757;28;20193;-74
2023/04/11 01:12:03;;;;;;;4.30;2.10;;;12.00;1.00;;;;;;5029236;28;20502;-75
2023/04/11 01:14:29;;;;;;;2.80;1.80;;;11.90;1.00;;;;;;5036685;28;21220;-74
2023/04/11 01:16:55;;;;;;;2.50;1.97;;;11.80;1.00;;;;;;5037487;28;20428;-74
2023/04/11 01:19:23;;;;;;;3.73;2.20;;;11.80;1.00;;;;;;5043005;28;20559;-74
2023/04/11 01:21:51;;;;;;;2.23;1.83;;;11.80;1.00;;;;;;5027181;28;20280;-74
2023/04/11 01:24:17;;;;;;;2.90;2.30;;;11.80;1.00;;;;;;5036110;28;20498;-74
2023/04/11 01:26:42;;;;;;;7.00;2.40;;;11.80;1.00;;;;;;5034229;28;20435;-74
2023/04/11 01:29:08;;;;;;;5.20;2.80;;;11.90;1.00;;;;;;5037494;28;20186;-74
2023/04/11 01:31:34;;;;;;;2.90;2.30;;;11.80;1.00;;;;;;5036962;28;20186;-74
2023/04/11 01:34:01;;;;;;;5.50;2.60;;;11.80;1.00;;;;;;5041834;28;20580;-74
2023/04/11 01:36:28;;;;;;;3.07;2.73;;;11.80;1.00;;;;;;5035156;28;20213;-74
2023/04/11 01:38:54;;;;;;;4.50;3.30;;;11.90;1.00;;;;;;5029723;28;20851;-74
2023/04/11 01:41:21;;;;;;;6.30;2.90;;;11.90;1.00;;;;;;5032394;28;20463;-75
2023/04/11 01:43:47;;;;;;;4.97;3.27;;;11.90;1.00;;;;;;5034480;28;20460;-75
2023/04/11 01:46:14;;;;;;;8.07;2.90;;;12.00;6.00;;;;;;5039304;28;20435;-75
2023/04/11 01:48:40;;;;;;;4.33;2.57;;;12.00;4.00;;;;;;5032850;28;20326;-75
2023/04/11 01:51:06;;;;;;;4.30;3.00;;;12.10;3.10;;;;;;5035982;28;20427;-75
2023/04/11 01:53:32;;;;;;;3.73;2.80;;;12.00;5.20;;;;;;5033245;28;21138;-74
2023/04/11 01:55:57;;;;;;;6.57;3.33;;;12.10;6.50;;;;;;5031538;28;20178;-74
2023/04/11 01:58:23;;;;;;;3.73;2.90;;;12.10;8.20;;;;;;5038622;28;20688;-74
2023/04/11 02:00:49;;;;;;;3.03;2.73;;;12.10;6.80;;;;;;5027306;28;20182;-74
2023/04/11 02:03:16;;;;;;;5.33;2.50;;;12.00;4.30;;;;;;5039196;28;20292;-74
2023/04/11 02:05:42;;;;;;;3.03;2.23;;;12.00;1.50;;;;;;5029780;28;20437;-74
2023/04/11 02:08:07;;;;;;;2.57;2.00;;;11.90;1.00;;;;;;5036564;28;20450;-74
2023/04/11 02:10:33;;;;;;;2.30;2.10;;;11.80;1.00;;;;;;5027113;28;20560;-74
2023/04/11 02:12:58;;;;;;;7.83;2.57;;;11.80;2.90;;;;;;5028101;28;20292;-74
2023/04/11 02:15:24;;;;;;;3.30;2.20;;;11.80;1.00;;;;;;5031209;28;20202;-74
2023/04/11 02:17:52;;;;;;;2.80;1.97;;;11.60;1.00;;;;;;5036453;28;20196;-74
2023/04/11 02:20:20;;;;;;;3.10;2.17;;;11.60;1.60;;;;;;5027033;28;20190;-74
2023/04/11 02:22:46;;;;;;;2.40;2.20;;;11.60;1.00;;;;;;5028893;28;20460;-75
2023/04/11 02:25:12;;;;;;;3.80;2.33;;;11.60;6.00;;;;;;5039988;28;20535;-74
2023/04/11 02:27:37;;;;;;;3.03;2.20;;;11.60;3.70;;;;;;5033635;28;21123;-74
2023/04/11 02:30:06;;;;;;;2.57;2.00;;;11.60;5.60;;;;;;5034385;28;20197;-74
2023/04/11 02:32:39;;;;;;;3.67;2.23;;;11.70;4.50;;;;;;5030355;28;20619;-74
2023/04/11 02:35:06;;;;;;;2.70;2.20;;;10.10;6.50;;;;;;5035684;28;20810;-74
2023/04/11 02:37:32;;;;;;;2.60;2.13;;;11.60;4.50;;;;;;5031697;28;20519;-74
2023/04/11 02:39:58;;;;;;;3.57;2.50;;;11.60;5.50;;;;;;5035049;28;20468;-74
2023/04/11 02:42:24;;;;;;;2.80;2.33;;;11.60;5.20;;;;;;5023466;28;20498;-74
2023/04/11 02:44:52;;;;;;;2.20;1.90;;;11.50;6.80;;;;;;5037020;28;20544;-74
2023/04/11 02:47:17;;;;;;;3.97;2.20;;;11.50;9.20;;;;;;5042144;28;20186;-74
2023/04/11 02:49:43;;;;;;;3.23;2.20;;;11.50;11.50;;;;;;5034733;28;20531;-74
2023/04/11 02:52:09;;;;;;;4.10;2.10;;;11.50;9.70;;;;;;5032233;28;20197;-75
2023/04/11 02:54:34;;;;;;;3.93;2.20;;;11.50;8.40;;;;;;5036087;28;20211;-74
2023/04/11 02:57:01;;;;;;;2.90;2.00;;;11.50;9.70;;;;;;5030457;28;20188;-74
2023/04/11 02:59:26;;;;;;;2.80;2.00;;;11.40;6.90;;;;;;5033937;28;20604;-74
2023/04/11 03:01:59;;;;;;;4.77;2.17;;;11.30;8.20;;;;;;5025862;28;20456;-74
2023/04/11 03:04:26;;;;;;;3.37;2.00;;;11.20;7.10;;;;;;5026718;28;20178;-74
2023/04/11 03:06:51;;;;;;;3.83;2.13;;;11.30;5.50;;;;;;5025879;28;20432;-74
2023/04/11 03:09:17;;;;;;;3.57;2.20;;;11.30;9.70;;;;;;5038713;28;20539;-74
2023/04/11 03:11:43;;;;;;;3.40;2.47;;;11.20;6.30;;;;;;5026703;28;20196;-74
2023/04/11 03:14:09;;;;;;;2.80;1.67;;;11.30;8.40;;;;;;5026845;28;20239;-75
2023/04/11 03:16:34;;;;;;;3.73;1.87;;;11.20;3.40;;;;;;5037512;28;20277;-74
2023/04/11 03:19:00;;;;;;;2.30;2.10;;;11.20;14.30;;;;;;5086742;22;20242;-74
2023/04/11 03:21:26;;;;;;;3.67;1.73;;;11.20;14.50;;;;;;5023125;28;20204;-75
2023/04/11 03:23:52;;;;;;;3.10;1.70;;;11.20;15.30;;;;;;5027570;28;20182;-74
2023/04/11 03:26:18;;;;;;;2.67;1.70;;;11.20;11.60;;;;;;5026531;28;20431;-75
2023/04/11 03:28:44;;;;;;;5.90;2.07;;;11.10;12.30;;;;;;5026169;28;20189;-74
2023/04/11 03:31:10;;;;;;;2.87;1.90;;;11.10;13.20;;;;;;5027662;28;20590;-75
2023/04/11 03:33:36;;;;;;;3.30;2.10;;;11.10;15.60;;;;;;5020743;28;20452;-75
2023/04/11 03:36:03;;;;;;;3.07;1.93;;;11.10;18.30;;;;;;5016028;28;20460;-74
2023/04/11 03:38:28;;;;;;;5.40;2.43;;;11.00;17.00;;;;;;5026101;28;20427;-75
2023/04/11 03:40:54;;;;;;;3.50;2.40;;;11.00;17.30;;;;;;5023897;28;21057;-74
2023/04/11 03:43:19;;;;;;;5.10;2.53;;;11.00;24.40;;;;;;5027316;28;20189;-75
2023/04/11 03:45:45;;;;;;;6.80;2.23;;;11.20;30.00;;;;;;5017191;28;20276;-74
2023/04/11 03:48:11;;;;;;;3.70;2.33;;;11.20;32.00;;;;;;5012096;28;20183;-76
2023/04/11 03:50:36;;;;;;;3.00;2.30;;;11.20;32.80;;;;;;5017308;28;20673;-75
2023/04/11 03:53:02;;;;;;;6.37;2.30;;;11.20;38.90;;;;;;5015090;28;20184;-76
2023/04/11 03:55:28;;;;;;;4.93;2.10;;;11.30;38.80;;;;;;5035860;28;20213;-74
2023/04/11 03:57:53;;;;;;;5.47;2.27;;;11.20;32.50;;;;;;5032031;28;20186;-74
2023/04/11 04:00:19;;;;;;;4.70;1.93;;;11.20;22.10;;;;;;5036189;28;20204;-74
2023/04/11 04:02:45;;;;;;;4.93;2.10;;;11.10;18.60;;;;;;5021877;28;20178;-73
2023/04/11 04:05:17;;;;;;;6.83;2.00;;;;;;;;;;5064642;22;20236;-75
2023/04/11 04:07:46;;;;;;;6.80;1.83;;;10.80;22.90;;;;;;5033205;28;20436;-76
2023/04/11 04:12:55;;;;;;;5.67;2.93;;;10.70;21.60;;;;;;5033048;22;20492;-74
2023/04/11 04:15:20;;;;;;;6.73;3.27;;;10.60;27.00;;;;;;5029452;28;20562;-76
2023/04/11 04:17:46;;;;;;;2.73;2.00;;;10.50;24.00;;;;;;5021760;28;20442;-75
2023/04/11 04:20:12;;;;;;;6.23;1.80;;;10.30;21.10;;;;;;5026339;28;20199;-74
2023/04/11 04:22:38;;;;;;;8.15;3.35;;;;;;;;;;5287863;22;20240;-74
2023/04/11 04:25:04;;;;;;;8.47;1.50;;;10.10;12.40;;;;;;5128869;22;20489;-73
2023/04/11 04:27:31;;;;;;;2.13;1.50;;;10.10;19.20;;;;;;5026982;28;20781;-74
2023/04/11 04:29:56;;;;;;;3.23;1.67;;;10.00;17.70;;;;;;5025817;28;20264;-74
2023/04/11 04:32:23;;;;;;;1.90;1.53;;;10.00;19.60;;;;;;5009967;28;20437;-74
2023/04/11 04:34:53;;;;;;;2.90;1.30;;;9.90;17.80;;;;;;5010443;28;20205;-74
2023/04/11 04:37:23;;;;;;;10.93;1.70;;;9.90;19.90;;;;;;5009751;28;20433;-74
2023/04/11 04:39:49;;;;;;;4.63;1.57;;;9.80;24.60;;;;;;5067779;22;20520;-74
2023/04/11 04:42:17;;;;;;;3.77;1.50;;;9.90;27.30;;;;;;5008796;28;20488;-74
2023/04/11 04:44:43;;;;;;;3.40;1.53;;;9.90;32.90;;;;;;5013523;28;20515;-74
2023/04/11 04:47:09;;;;;;;2.30;1.30;;;10.00;37.90;;;;;;5009572;28;20568;-74
2023/04/11 04:49:34;;;;;;;6.17;1.60;;;10.00;29.40;;;;;;5011449;28;20236;-74
2023/04/11 04:52:00;;;;;;;2.30;1.70;;;10.40;37.60;;;;;;5006001;28;20181;-74
2023/04/11 04:54:26;;;;;;;3.90;2.10;;;10.00;38.60;;;;;;5008441;28;20465;-74
2023/04/11 04:56:51;;;;;;;2.40;1.87;;;10.00;38.10;;;;;;5005752;28;20179;-74
2023/04/11 04:59:17;;;;;;;2.30;1.93;;;10.10;35.80;;;;;;5005864;28;20214;-74
2023/04/11 05:01:43;;;;;;;3.63;1.90;;;10.10;38.20;;;;;;5010332;28;20296;-73
2023/04/11 05:04:08;;;;;;;2.63;1.73;;;10.20;31.50;;;;;;5006303;28;20829;-73
2023/04/11 05:06:34;;;;;;;7.87;1.97;;;10.00;25.80;;;;;;5005232;28;20615;-74
2023/04/11 05:09:00;;;;;;;4.67;2.40;;;10.00;31.40;;;;;;5008430;28;20202;-73
2023/04/11 05:11:27;;;;;;;2.80;2.00;;;9.90;27.30;;;;;;5007746;28;20530;-74
2023/04/11 05:13:52;;;;;;;4.50;2.27;;;9.90;31.00;;;;;;5005957;28;20478;-73
2023/04/11 05:16:18;;;;;;;3.97;2.57;;;9.80;28.90;;;;;;5007170;28;20442;-74
2023/04/11 05:18:44;;;;;;;9.60;2.80;;;9.80;38.50;;;;;;5009122;28;20584;-74
2023/04/11 05:21:11;;;;;;;5.80;3.13;;;9.90;38.70;;;;;;5008289;28;20243;-73
2023/04/11 05:23:37;;;;;;;6.60;2.83;;;10.00;37.90;;;;;;5007806;28;20449;-73
2023/04/11 05:26:03;;;;;;;4.33;2.43;;;10.00;40.30;;;;;;5001224;28;20456;-73
2023/04/11 05:28:30;;;;;;;6.53;2.60;;;10.20;35.90;;;;;;5009614;28;20705;-73
2023/04/11 05:30:56;;;;;;;6.43;2.60;;;10.20;38.00;;;;;;5004958;28;20182;-74
2023/04/11 05:33:23;;;;;;;8.93;2.80;;;10.20;38.00;;;;;;5006112;28;20441;-73
2023/04/11 05:35:52;;;;;;;2.90;2.70;;;10.20;38.20;;;;;;5001707;28;20257;-73
2023/04/11 05:38:18;;;;;;;3.80;2.33;;;10.10;35.90;;;;;;5007767;28;20987;-74
2023/04/11 05:40:43;;;;;;;6.33;2.30;;;10.00;38.00;;;;;;4997833;28;20491;-73
2023/04/11 05:43:13;;;;;;;4.93;2.20;;;10.10;38.00;;;;;;5010209;28;20803;-74
2023/04/11 05:45:46;;;;;;;7.33;2.20;;;10.10;38.10;;;;;;5006863;28;20557;-74
2023/04/11 05:48:15;;;;;;;4.17;2.40;;;10.20;36.00;;;;;;5008247;28;20947;-74
2023/04/11 05:50:40;;;;;;;4.07;1.60;;;10.20;40.80;;;;;;5006675;28;20495;-73
2023/04/11 05:53:06;;;;;;;4.33;2.03;;;10.20;38.00;;;;;;5007378;28;20449;-73
2023/04/11 05:55:32;;;;;;;4.38;1.90;;;12.50;32.70;;;;;;4996838;28;20446;-75
2023/04/11 05:57:58;;;;;;;3.13;1.80;;;10.20;33.80;;;;;;4996233;28;20186;-74
2023/04/11 06:00:25;;;;;;;2.17;1.50;;;10.20;23.70;;;;;;5007700;28;20461;-74
2023/04/11 06:02:51;;;;;;;3.73;1.80;;;10.20;26.60;;;;;;5004776;28;20665;-75
2023/04/11 06:05:19;;;;;;;7.53;1.90;;;10.20;30.50;;;;;;4999657;28;20445;-74
2023/04/11 06:07:45;;;;;;;3.97;1.63;;;10.30;35.00;;;;;;5003773;28;20441;-73
2023/04/11 06:10:10;;;;;;;3.47;2.23;;;10.30;24.10;;;;;;5008570;28;20449;-74
2023/04/11 06:12:36;;;;;;;3.40;1.93;;;10.30;17.30;;;;;;5008700;28;20661;-74
2023/04/11 06:15:02;;;;;;;2.87;1.70;;;10.30;28.20;;;;;;5005772;28;20620;-75
2023/04/11 06:17:28;;;;;;;2.00;1.47;;;10.30;15.40;;;;;;5003399;28;20211;-75
2023/04/11 06:19:53;;;;;;;2.60;1.57;;;10.40;21.60;;;;;;5006973;28;20457;-75
2023/04/11 06:22:19;;;;;;;4.50;1.80;;;10.40;18.40;;;;;;5007360;28;20182;-74
2023/04/11 06:24:45;;;;;;;5.77;1.80;;;10.30;13.10;;;;;;5001942;28;20213;-75
2023/04/11 06:27:11;;;;;;;3.33;1.63;;;10.30;6.90;;;;;;5009121;28;20186;-75
2023/04/11 06:29:44;;;;;;;4.40;1.37;;;10.40;13.40;;;;;;5007315;28;20830;-75
2023/04/11 06:32:13;;;;;;;2.53;1.50;;;10.50;8.40;;;;;;5000755;28;20197;-75
2023/04/11 06:34:38;;;;;;;3.63;1.50;;;10.40;2.00;;;;;;5007781;28;20466;-75
2023/04/11 06:37:06;;;;;;;3.90;1.53;;;11.30;3.00;;;;;;5006473;28;21109;-74
2023/04/11 06:39:33;;;;;;;1.87;1.20;;;11.20;1.00;;;;;;5008066;28;20212;-74
2023/04/11 06:41:59;;;;;;;4.30;1.30;;;10.30;5.20;;;;;;5002284;28;20442;-75
2023/04/11 06:44:25;;;;;;;3.40;1.33;;;10.40;4.00;;;;;;5006319;28;20811;-75
2023/04/11 06:46:50;;;;;;;5.83;1.70;;;10.40;8.70;;;;;;5007780;28;20205;-74
2023/04/11 06:49:17;;;;;;;2.07;1.60;;;10.50;1.00;;;;;;5003461;28;20684;-74
2023/04/11 06:51:48;;;;;;;2.97;1.33;;;10.50;5.30;;;;;;5007005;28;20285;-75
2023/04/11 06:54:15;;;;;;;2.80;1.40;;;10.50;1.00;;;;;;4996891;28;20552;-76
2023/04/11 06:56:41;;;;;;;4.20;1.47;;;10.40;1.40;;;;;;5003808;28;20823;-74
2023/04/11 06:59:06;;;;;;;2.80;1.40;;;10.60;3.70;;;;;;5007141;28;20576;-74
2023/04/11 07:01:38;;;;;;;3.03;1.50;;;10.70;1.00;;;;;;5002205;28;20544;-75
2023/04/11 07:04:07;;;;;;;2.80;1.40;;;10.60;1.00;;;;;;5006074;28;20265;-74
2023/04/11 07:06:36;;;;;;;3.83;1.50;;;10.80;1.10;;;;;;4999123;28;20956;-75
2023/04/11 07:09:03;;;;;;;4.10;1.60;;;11.10;1.00;;;;;;5007758;28;20456;-74
2023/04/11 07:11:29;;;;;;;3.37;1.47;;;11.10;1.00;;;;;;5006869;28;20452;-74
2023/04/11 07:13:55;;;;;;;4.20;1.40;;;11.30;1.00;;;;;;5003867;28;20441;-75
2023/04/11 07:16:21;;;;;;;4.90;1.67;;;11.50;1.90;;;;;;5000570;28;20488;-74
2023/04/11 07:18:47;;;;;;;6.80;1.90;;;11.60;1.00;;;;;;5007730;28;20441;-74
2023/04/11 07:21:13;;;;;;;5.47;1.90;;;11.50;1.00;;;;;;5006754;28;21023;-75
2023/04/11 07:23:40;;;;;;;5.83;2.33;;;11.50;1.00;;;;;;5006698;28;20229;-74
2023/04/11 07:26:09;;;;;;;10.20;2.30;;;11.80;1.00;;;;;;5007575;28;20472;-74
2023/04/11 07:28:36;;;;;;;4.20;2.00;;;11.90;1.00;;;;;;5000795;28;20469;-74
2023/04/11 07:31:03;;;;;;;4.43;1.90;;;11.90;1.00;;;;;;4997275;28;20464;-74
2023/04/11 07:33:28;;;;;;;4.27;1.90;;;12.30;1.00;;;;;;5005805;28;20674;-74
2023/04/11 07:35:54;;;;;;;7.97;2.10;;;11.90;1.00;;;;;;5002088;28;20465;-74
2023/04/11 07:38:28;;;;;;;8.23;2.37;;;12.00;1.00;;;;;;5008004;28;20750;-74
2023/04/11 07:40:55;;;;;;;9.83;2.07;;;12.00;1.00;;;;;;5001401;28;20225;-75
2023/04/11 07:43:21;;;;;;;3.80;2.00;;;12.10;1.00;;;;;;5004958;28;20438;-74
2023/04/11 07:45:46;;;;;;;3.47;1.80;;;12.00;1.00;;;;;;5007323;28;21058;-75
2023/04/11 07:48:12;;;;;;;7.90;1.80;;;12.00;1.00;;;;;;5006109;28;20248;-74
2023/04/11 07:50:37;;;;;;;3.00;1.80;;;12.10;1.00;;;;;;5007077;28;20231;-73
2023/04/11 07:53:03;;;;;;;4.43;2.20;;;12.20;1.00;;;;;;4999001;28;20195;-74
2023/04/11 07:55:29;;;;;;;8.20;2.10;;;12.30;1.00;;;;;;5008604;28;20230;-75
2023/04/11 07:57:54;;;;;;;5.17;3.00;;;12.70;1.00;;;;;;5006308;28;20182;-73
2023/04/11 08:00:21;;;;;;;3.70;1.80;;;12.80;1.00;;;;;;5006617;28;20198;-73
2023/04/11 08:02:47;;;;;;;7.13;2.27;;;12.80;1.00;;;;;;5001139;28;20203;-74
2023/04/11 08:05:13;;;;;;;8.87;2.10;;;13.00;1.00;;;;;;5001866;28;20796;-73
2023/04/11 08:07:40;;;;;;;6.50;1.70;;;14.10;1.00;;;;;;5004768;28;20182;-73
2023/04/11 08:10:06;;;;;;;6.40;1.70;;;14.30;1.00;;;;;;5003376;28;20582;-73
2023/04/11 08:12:32;;;;;;;5.50;2.10;;;13.70;1.00;;;;;;5004863;28;20441;-74
2023/04/11 08:14:57;;;;;;;7.43;2.30;;;12.70;1.00;;;;;;4999613;28;20466;-73
2023/04/11 08:17:27;;;;;;;7.47;2.50;;;12.20;1.00;;;;;;5008408;28;20182;-73
2023/04/11 08:19:54;;;;;;;8.30;2.20;;;12.00;1.00;;;;;;5007105;28;20317;-73
2023/04/11 08:22:20;;;;;;;7.83;2.40;;;12.30;1.00;;;;;;5003888;28;20965;-73
2023/04/11 08:24:45;;;;;;;5.30;2.40;;;12.80;1.00;;;;;;5007195;28;20576;-73
2023/04/11 08:27:11;;;;;;;6.17;2.07;;;14.10;1.00;;;;;;5001296;28;20206;-74
2023/04/11 08:29:36;;;;;;;6.87;2.00;;;16.10;1.00;;;;;;5006954;28;20202;-74
2023/04/11 08:32:03;;;;;;;5.07;2.33;;;17.00;1.00;;;;;;5005245;28;20608;-73
2023/04/11 08:34:32;;;;;;;6.00;2.50;;;18.00;1.00;;;;;;5006865;28;20249;-74
2023/04/11 08:36:57;;;;;;;5.90;2.07;;;18.60;1.00;;;;;;5002862;28;20436;-74
2023/04/11 08:39:23;;;;;;;6.10;2.33;;;19.70;1.00;;;;;;5005160;28;20994;-76
2023/04/11 08:41:49;;;;;;;6.57;2.00;;;19.30;1.00;;;;;;5004011;28;20335;-75
2023/04/11 08:44:14;;;;;;;4.40;1.63;;;19.20;1.00;;;;;;5003077;28;20186;-75
2023/04/11 08:46:41;;;;;;;4.60;1.90;;;19.50;1.00;;;;;;5011466;28;20186;-75
2023/04/11 08:49:07;;;;;;;9.57;1.90;;;19.60;1.00;;;;;;5003421;28;20210;-76
2023/04/11 08:51:32;;;;;;;4.30;1.93;;;20.10;1.00;;;;;;5007409;28;20483;-75
2023/04/11 08:54:03;;;;;;;9.57;2.40;;;20.20;1.00;;;;;;5009312;28;20181;-75
2023/04/11 08:56:29;;;;;;;5.60;2.10;;;20.30;1.00;;;;;;5007488;28;20184;-76
2023/04/11 08:58:55;;;;;;;4.77;1.70;;;20.00;1.00;;;;;;5006561;28;20460;-76
2023/04/11 09:01:29;;;;;;;5.77;2.03;;;18.90;1.00;;;;;;5008274;28;20627;-74
2023/04/11 09:03:54;;;;;;;6.40;2.00;;;18.50;1.00;;;;;;5007219;28;20181;-76
2023/04/11 09:06:20;;;;;;;5.83;1.93;;;18.30;1.00;;;;;;5007644;28;20433;-77
2023/04/11 09:08:46;;;;;;;6.40;2.40;;;17.80;1.00;;;;;;5007384;28;20562;-75
2023/04/11 09:11:11;;;;;;;3.97;2.00;;;17.80;1.00;;;;;;5005936;28;20201;-75
2023/04/11 09:13:37;;;;;;;8.20;2.20;;;18.20;1.00;;;;;;5006686;28;20174;-75
2023/04/11 09:16:04;;;;;;;7.10;2.40;;;18.90;1.00;;;;;;5004070;28;20210;-75
2023/04/11 09:18:34;;;;;;;11.67;2.73;;;20.20;1.00;;;;;;5006361;28;20198;-74
2023/04/11 09:21:07;;;;;;;6.77;2.00;;;20.30;1.00;;;;;;4999687;28;20566;-74
2023/04/11 09:23:34;;;;;;;8.40;2.20;;;20.60;1.00;;;;;;5004640;28;20802;-74
2023/04/11 09:25:59;;;;;;;6.00;2.10;;;21.60;1.00;;;;;;4997227;28;20469;-74
2023/04/11 09:28:25;;;;;;;9.60;2.10;;;20.20;1.00;;;;;;5002024;28;20515;-74
2023/04/11 09:30:53;;;;;;;7.53;2.30;;;20.10;1.00;;;;;;5001810;28;20205;-74
2023/04/11 09:33:20;;;;;;;7.93;2.40;;;20.20;1.00;;;;;;5000391;28;20529;-74
2023/04/11 09:35:51;;;;;;;9.20;2.10;;;20.80;1.00;;;;;;4999253;28;20507;-74
2023/04/11 09:38:35;;;;;;;11.90;2.50;;;18.90;1.00;;;;;;5001764;28;20436;-74
2023/04/11 09:41:03;;;;;;;10.30;2.33;;;18.70;1.00;;;;;;5008486;28;20490;-74
2023/04/11 09:43:58;;;;;;;8.53;2.37;;;17.90;1.00;;;;;;5005647;28;20801;-74
2023/04/11 09:46:24;;;;;;;7.37;2.53;;;17.70;1.00;;;;;;5003508;28;20452;-75
2023/04/11 09:48:51;;;;;;;7.17;2.43;;;17.00;1.00;;;;;;5009479;28;20469;-74
2023/04/11 09:51:18;;;;;;;6.23;2.30;;;16.90;1.00;;;;;;5005938;28;20266;-73
2023/04/11 09:53:44;;;;;;;6.63;2.10;;;16.70;1.00;;;;;;5006277;28;20455;-74
2023/04/11 09:56:10;;;;;;;5.83;2.07;;;16.50;1.00;;;;;;4998458;28;20442;-74
2023/04/11 09:58:37;;;;;;;6.10;2.57;;;18.60;1.00;;;;;;5002240;28;20466;-73
2023/04/11 10:01:06;;;;;;;7.03;2.23;;;18.90;1.00;;;;;;4995558;28;20205;-75
2023/04/11 10:03:33;;;;;;;7.90;2.00;;;19.80;1.00;;;;;;5002816;28;20447;-75
2023/04/11 10:06:01;;;;;;;7.13;2.00;;;19.40;1.00;;;;;;5002780;28;20462;-74
2023/04/11 10:08:32;;;;;;;6.10;2.00;;;19.60;1.00;;;;;;5008388;28;20453;-73
2023/04/11 10:11:02;;;;;;;6.40;2.50;;;20.10;1.00;;;;;;5000504;28;20437;-74
2023/04/11 10:13:34;;;;;;;4.20;1.77;;;21.40;1.00;;;;;;5001963;28;20466;-74
2023/04/11 10:16:11;;;;;;;4.50;1.77;;;22.60;1.00;;;;;;5008380;28;20475;-74
2023/04/11 10:18:37;;;;;;;5.50;1.80;;;21.00;1.00;;;;;;5005286;28;20782;-74
2023/04/11 10:21:04;;;;;;;4.50;1.73;;;21.20;1.00;;;;;;5009611;28;20421;-73
2023/04/11 10:24:09;;;;;;;4.50;2.00;;;22.40;1.00;;;;;;5001073;28;20799;-74
2023/04/11 10:26:54;;;;;;;6.03;1.80;;;23.30;1.00;;;;;;5002416;28;20432;-74
2023/04/11 10:29:46;;;;;;;4.10;1.53;;;22.80;1.00;;;;;;5005070;28;20823;-75
2023/04/11 10:32:15;;;;;;;4.00;1.73;;;21.90;1.00;;;;;;4991710;28;20495;-74
2023/04/11 10:35:00;;;;;;;7.90;1.50;;;22.60;1.00;;;;;;5008578;28;20469;-75
2023/04/11 10:37:29;;;;;;;7.30;1.70;;;22.70;1.00;;;;;;5005069;28;20454;-74
2023/04/11 10:39:59;;;;;;;6.23;1.50;;;23.90;1.00;;;;;;5005239;28;20475;-75
2023/04/11 10:42:33;;;;;;;4.37;1.50;;;25.00;1.00;;;;;;4999958;28;20495;-75
2023/04/11 10:45:16;;;;;;;6.03;1.80;;;24.90;1.00;;;;;;5007042;28;20464;-75
2023/04/11 10:47:57;;;;;;;5.53;1.60;;;24.30;1.00;;;;;;5006730;28;20436;-75
2023/04/11 10:53:46;;;;;;;6.63;1.60;;;24.70;1.00;;;;;;4994882;28;20985;-75
2023/04/11 10:56:11;;;;;;;6.80;1.80;;;23.10;1.00;;;;;;5003051;28;20450;-75
2023/04/11 10:58:38;;;;;;;6.30;1.70;;;20.90;1.00;;;;;;5008930;28;20478;-74
2023/04/11 11:01:16;;;;;;;7.70;1.87;;;19.90;1.00;;;;;;5004589;28;20213;-75
2023/04/11 11:03:51;;;;;;;8.03;2.10;;;20.20;1.00;;;;;;4995244;28;21087;-76
2023/04/11 11:06:17;;;;;;;5.43;1.83;;;19.80;1.00;;;;;;5005345;28;20860;-75
2023/04/11 11:08:45;;;;;;;5.73;1.80;;;18.70;1.00;;;;;;5006386;28;20556;-76
2023/04/11 11:11:12;;;;;;;7.27;1.83;;;18.30;1.00;;;;;;4998416;28;20222;-75
2023/04/11 11:13:38;;;;;;;6.47;2.20;;;17.70;1.00;;;;;;4999204;28;20434;-75
2023/04/11 11:16:06;;;;;;;3.17;1.40;;;17.70;1.00;;;;;;4994672;28;20462;-75
2023/04/11 11:18:32;;;;;;;2.77;1.33;;;17.60;1.00;;;;;;5007954;28;20461;-75
2023/04/11 11:20:57;;;;;;;4.70;1.43;;;18.60;1.00;;;;;;5005562;28;20484;-76
2023/04/11 11:23:23;;;;;;;3.90;1.30;;;20.00;1.00;;;;;;5000985;28;20197;-75
2023/04/11 11:25:55;;;;;;;4.70;1.20;;;21.80;1.00;;;;;;5005979;28;20370;-75
2023/04/11 11:28:21;;;;;;;3.20;1.30;;;20.30;1.00;;;;;;5006050;28;20908;-75
2023/04/11 11:30:51;;;;;;;4.03;1.57;;;20.40;1.00;;;;;;5002305;28;20473;-75
2023/04/11 11:33:20;;;;;;;4.23;1.60;;;21.70;1.00;;;;;;5002417;28;20457;-75
2023/04/11 11:35:57;;;;;;;3.53;1.50;;;23.30;1.00;;;;;;5001757;28;20472;-75
2023/04/11 11:38:30;;;;;;;4.33;1.63;;;24.70;1.00;;;;;;5002416;28;20910;-76
2023/04/11 11:40:57;;;;;;;4.63;1.70;;;25.00;1.00;;;;;;5006501;28;20429;-79
2023/04/11 11:43:24;;;;;;;4.67;1.90;;;24.90;1.00;;;;;;5006496;28;20440;-76
2023/04/11 11:46:13;;;;;;;3.60;1.60;;;24.90;1.00;;;;;;5007836;28;21005;-76
2023/04/11 11:48:40;;;;;;;4.10;1.57;;;25.80;1.00;;;;;;5007037;28;20496;-76
2023/04/11 11:51:06;;;;;;;4.43;1.40;;;26.10;1.00;;;;;;5006285;28;20185;-78
2023/04/11 11:53:32;;;;;;;5.80;2.00;;;26.90;1.00;;;;;;5000619;28;20251;-76
2023/04/11 11:55:58;;;;;;;4.40;1.60;;;26.70;1.00;;;;;;5006468;28;20206;-76
2023/04/11 11:58:24;;;;;;;5.70;2.07;;;25.70;1.00;;;;;;5001204;28;20551;-77
2023/04/11 12:00:51;;;;;;;3.70;1.70;;;25.40;1.00;;;;;;5005909;28;20720;-76
2023/04/11 12:03:21;;;;;;;5.17;2.30;;;26.00;1.00;;;;;;5006178;28;20946;-76
2023/04/11 12:05:47;;;;;;;4.97;1.73;;;26.80;1.00;;;;;;5006107;28;20186;-76
2023/04/11 12:08:13;;;;;;;7.67;2.27;;;26.00;1.00;;;;;;5003927;28;20687;-76
2023/04/11 12:10:45;;;;;;;6.80;2.27;;;25.90;1.00;;;;;;5006692;28;20522;-75
2023/04/11 12:13:22;;;;;;;6.30;2.13;;;25.00;1.00;;;;;;5000772;28;20892;-75
2023/04/11 12:15:55;;;;;;;5.47;1.60;;;25.30;1.00;;;;;;5000523;28;20835;-76
2023/04/11 12:18:22;;;;;;;6.73;2.00;;;21.00;1.00;;;;;;5003186;28;20437;-76
2023/04/11 12:20:49;;;;;;;6.73;1.93;;;21.20;1.00;;;;;;5011779;28;20889;-75
2023/04/11 12:23:15;;;;;;;5.20;1.63;;;22.30;1.00;;;;;;5000718;28;20464;-76
2023/04/11 12:25:41;;;;;;;5.80;1.73;;;23.10;1.00;;;;;;5010949;28;20539;-76
2023/04/11 12:28:07;;;;;;;5.23;2.00;;;20.70;1.00;;;;;;5006021;28;20517;-75
2023/04/11 12:30:33;;;;;;;5.47;1.83;;;20.50;1.00;;;;;;4996533;28;20182;-74
2023/04/11 12:32:59;;;;;;;4.60;1.70;;;19.80;1.00;;;;;;4997534;28;20491;-74
2023/04/11 12:35:25;;;;;;;5.70;1.80;;;18.90;1.00;;;;;;5001858;28;20333;-74
2023/04/11 12:37:51;;;;;;;5.83;2.10;;;18.60;1.00;;;;;;4989048;28;20677;-75
2023/04/11 12:40:17;;;;;;;6.70;2.30;;;18.10;1.00;;;;;;5001783;28;20298;-75
2023/04/11 12:42:44;;;;;;;7.87;2.30;;;17.90;1.00;;;;;;5010143;28;20186;-74
2023/04/11 12:45:10;;;;;;;5.60;2.40;;;19.30;1.00;;;;;;5008493;28;20186;-75
2023/04/11 12:47:37;;;;;;;5.93;2.17;;;20.20;1.00;;;;;;5009828;28;21020;-75
2023/04/11 12:50:03;;;;;;;6.30;2.03;;;20.50;1.00;;;;;;5008921;28;20457;-74
2023/04/11 12:52:29;;;;;;;4.90;2.10;;;19.60;1.00;;;;;;5010661;28;20580;-75
2023/04/11 12:54:55;;;;;;;7.20;2.40;;;19.20;1.00;;;;;;5011270;28;20460;-75
2023/04/11 12:57:21;;;;;;;5.90;1.80;;;20.30;1.00;;;;;;5008059;28;20453;-74
2023/04/11 12:59:46;;;;;;;3.50;1.90;;;23.50;1.00;;;;;;5010826;28;20237;-75
2023/04/11 13:02:12;;;;;;;3.13;1.30;;;24.00;1.00;;;;;;5006742;28;20556;-75